Time;durP1;ratioP1;P1;durP2;ratioP2;P2;SDS_P1;SDS_P2;PMS_P1;PMS_P2;Temp;Humidity;BMP_temperature;BMP_pressure;BME280_temperature;BME280_humidity;BME280_pressure;Samples;Min_cycle;Max_cycle;Signal;HPM_P1;HPM_P2
2022/10/27 00:01:41;;;;;;;13.95;6.88;;;;;;;;;;4990572;28;20054;-83
2022/10/27 00:04:07;;;;;;;15.30;7.18;;;;;;;;;;4989752;28;20051;-84
2022/10/27 00:06:33;;;;;;;23.45;7.72;;;;;;;;;;5006927;28;20058;-82
2022/10/27 00:09:00;;;;;;;18.27;7.00;;;;;;;;;;4997462;28;20057;-83
2022/10/27 00:11:26;;;;;;;18.58;7.53;;;;;;;;;;5005789;28;20050;-82
2022/10/27 00:13:52;;;;;;;17.92;6.95;;;;;;;;;;4989274;28;20065;-83
2022/10/27 00:16:19;;;;;;;15.75;6.65;;;;;;;;;;4996550;28;20053;-82
2022/10/27 00:18:45;;;;;;;16.95;6.57;;;;;;;;;;5027356;28;20065;-83
2022/10/27 00:21:16;;;;;;;14.48;7.03;;;;;;;;;;4994204;28;20784;-83
2022/10/27 00:23:43;;;;;;;16.25;7.30;;;;;;;;;;4989667;28;20051;-85
2022/10/27 00:26:10;;;;;;;16.35;6.95;;;;;;;;;;5019634;28;20065;-83
2022/10/27 00:28:37;;;;;;;21.00;7.00;;;;;;;;;;4992452;28;20068;-83
2022/10/27 00:31:11;;;;;;;13.93;6.95;;;;;;;;;;5008989;28;20054;-83
2022/10/27 00:33:37;;;;;;;19.50;7.85;;;;;;;;;;4998578;28;20063;-83
2022/10/27 00:36:11;;;;;;;15.63;7.25;;;;;;;;;;4989315;28;20065;-83
2022/10/27 00:38:38;;;;;;;18.67;7.18;;;;;;;;;;4996084;28;20058;-83
2022/10/27 00:41:06;;;;;;;17.10;6.43;;;;;;;;;;5008512;28;20945;-82
2022/10/27 00:43:32;;;;;;;11.82;5.70;;;;;;;;;;5020686;28;20137;-83
2022/10/27 00:46:18;;;;;;;14.05;6.47;;;;;;;;;;5023945;28;20058;-83
2022/10/27 00:48:46;;;;;;;14.95;6.55;;;;;;;;;;5004919;28;20061;-83
2022/10/27 00:51:15;;;;;;;16.95;6.80;;;;;;;;;;4994915;28;20727;-83
2022/10/27 00:53:42;;;;;;;17.35;7.32;;;;;;;;;;5006722;28;20058;-83
2022/10/27 00:56:09;;;;;;;12.82;6.20;;;;;;;;;;5039817;28;20046;-83
2022/10/27 00:58:35;;;;;;;17.10;6.70;;;;;;;;;;5020042;28;20596;-83
2022/10/27 01:01:02;;;;;;;16.50;6.47;;;;;;;;;;5017565;28;20050;-83
2022/10/27 01:03:28;;;;;;;15.30;6.93;;;;;;;;;;5019884;28;20161;-83
2022/10/27 01:05:56;;;;;;;15.75;6.25;;;;;;;;;;5034107;28;20097;-83
2022/10/27 01:08:22;;;;;;;15.43;6.95;;;;;;;;;;5001652;28;20062;-83
2022/10/27 01:10:49;;;;;;;17.45;6.97;;;;;;;;;;5024967;28;20054;-83
2022/10/27 01:13:16;;;;;;;14.80;6.10;;;;;;;;;;5030065;28;20050;-84
2022/10/27 01:15:50;;;;;;;20.40;6.80;;;;;;;;;;4998004;28;20050;-83
2022/10/27 01:18:16;;;;;;;14.57;6.78;;;;;;;;;;5023712;28;20062;-83
2022/10/27 01:20:58;;;;;;;22.25;6.25;;;;;;;;;;5012086;28;20073;-84
2022/10/27 01:23:27;;;;;;;12.93;6.85;;;;;;;;;;5018154;28;20050;-84
2022/10/27 01:26:13;;;;;;;16.92;7.25;;;;;;;;;;4993044;28;20455;-84
2022/10/27 01:28:51;;;;;;;19.13;7.47;;;;;;;;;;4991848;28;20547;-84
2022/10/27 01:31:40;;;;;;;15.82;7.38;;;;;;;;;;4992214;28;20062;-83
2022/10/27 01:34:21;;;;;;;21.52;7.43;;;;;;;;;;5001641;28;20050;-80
2022/10/27 01:37:00;;;;;;;18.27;6.95;;;;;;;;;;5001212;28;20077;-81
2022/10/27 01:39:29;;;;;;;14.00;7.00;;;;;;;;;;4995060;28;20046;-81
2022/10/27 01:42:06;;;;;;;17.73;7.78;;;;;;;;;;4996347;28;20061;-84
2022/10/27 01:44:35;;;;;;;23.33;7.35;;;;;;;;;;5002683;28;20062;-81
2022/10/27 01:47:01;;;;;;;17.83;6.53;;;;;;;;;;4994432;28;20532;-84
2022/10/27 01:49:39;;;;;;;16.70;7.10;;;;;;;;;;5010293;28;20060;-84
2022/10/27 01:52:26;;;;;;;18.58;7.97;;;;;;;;;;5005455;28;20282;-85
2022/10/27 01:54:54;;;;;;;14.10;7.50;;;;;;;;;;5012261;28;20825;-81
2022/10/27 01:57:31;;;;;;;17.85;7.07;;;;;;;;;;4998284;28;20061;-82
2022/10/27 02:00:05;;;;;;;17.80;7.80;;;;;;;;;;5012551;28;20050;-81
2022/10/27 02:02:34;;;;;;;14.30;6.80;;;;;;;;;;5030303;28;20054;-82
2022/10/27 02:05:00;;;;;;;14.20;6.78;;;;;;;;;;5012397;28;20105;-81
2022/10/27 02:07:43;;;;;;;15.27;7.25;;;;;;;;;;5009609;28;20101;-82
2022/10/27 02:10:23;;;;;;;15.13;7.32;;;;;;;;;;4993272;28;20831;-84
2022/10/27 02:12:50;;;;;;;20.85;7.75;;;;;;;;;;4996216;28;20058;-85
2022/10/27 02:15:37;;;;;;;13.00;6.60;;;;;;;;;;5014953;28;20102;-83
2022/10/27 02:18:24;;;;;;;16.80;7.57;;;;;;;;;;4996908;28;20046;-84
2022/10/27 02:20:52;;;;;;;12.75;7.15;;;;;;;;;;5014629;28;20065;-85
2022/10/27 02:23:20;;;;;;;15.77;7.05;;;;;;;;;;5000294;28;20061;-82
2022/10/27 02:25:50;;;;;;;18.35;6.32;;;;;;;;;;5007702;28;20153;-84
2022/10/27 02:28:19;;;;;;;15.75;7.35;;;;;;;;;;5033684;28;20041;-82
2022/10/27 02:30:45;;;;;;;16.17;6.85;;;;;;;;;;5006168;28;20073;-83
2022/10/27 02:33:12;;;;;;;14.65;7.00;;;;;;;;;;5021407;28;20057;-84
2022/10/27 02:35:38;;;;;;;19.33;7.63;;;;;;;;;;5005447;28;20582;-85
2022/10/27 02:38:05;;;;;;;15.98;6.45;;;;;;;;;;5014316;28;20060;-83
2022/10/27 02:40:31;;;;;;;13.00;6.72;;;;;;;;;;5015285;28;20069;-83
2022/10/27 02:42:57;;;;;;;18.75;6.30;;;;;;;;;;5023780;28;20081;-83
2022/10/27 02:45:24;;;;;;;19.00;6.85;;;;;;;;;;5015823;28;20141;-83
2022/10/27 02:47:50;;;;;;;15.70;6.47;;;;;;;;;;5033321;28;20054;-83
2022/10/27 02:50:16;;;;;;;13.68;6.45;;;;;;;;;;5014748;28;20058;-84
2022/10/27 02:52:43;;;;;;;13.32;5.72;;;;;;;;;;5021300;28;20058;-82
2022/10/27 02:55:09;;;;;;;14.75;6.00;;;;;;;;;;5007562;28;20519;-83
2022/10/27 02:57:36;;;;;;;16.27;6.25;;;;;;;;;;5005185;28;20058;-84
2022/10/27 03:00:03;;;;;;;13.40;6.13;;;;;;;;;;5012296;28;20134;-82
2022/10/27 03:02:30;;;;;;;15.02;6.03;;;;;;;;;;5019189;28;20064;-85
2022/10/27 03:04:56;;;;;;;12.02;6.10;;;;;;;;;;5014554;28;20464;-84
2022/10/27 03:07:23;;;;;;;15.23;5.82;;;;;;;;;;4996232;28;20521;-82
2022/10/27 03:09:49;;;;;;;12.57;5.25;;;;;;;;;;4994054;28;20066;-84
2022/10/27 03:12:15;;;;;;;15.27;6.10;;;;;;;;;;5005528;28;20507;-84
2022/10/27 03:14:42;;;;;;;17.38;5.80;;;;;;;;;;5013329;28;20464;-83
2022/10/27 03:17:08;;;;;;;10.18;5.55;;;;;;;;;;4998661;28;21085;-85
2022/10/27 03:19:49;;;;;;;15.35;5.57;;;;;;;;;;5014546;28;20051;-85
2022/10/27 03:22:38;;;;;;;13.18;5.50;;;;;;;;;;5007621;28;20048;-85
2022/10/27 03:25:05;;;;;;;12.15;5.30;;;;;;;;;;5004149;28;20054;-84
2022/10/27 03:27:31;;;;;;;9.43;5.22;;;;;;;;;;4992688;28;20054;-85
2022/10/27 03:29:58;;;;;;;14.93;4.95;;;;;;;;;;4992134;28;20252;-83
2022/10/27 03:32:24;;;;;;;12.95;5.47;;;;;;;;;;4990581;28;20099;-81
2022/10/27 03:34:50;;;;;;;14.90;5.45;;;;;;;;;;5009315;28;20058;-80
2022/10/27 03:37:16;;;;;;;11.57;5.45;;;;;;;;;;5010410;28;20058;-82
2022/10/27 03:39:43;;;;;;;11.32;5.38;;;;;;;;;;4999386;28;20054;-82
2022/10/27 03:42:09;;;;;;;12.50;5.30;;;;;;;;;;5009043;28;20062;-83
2022/10/27 03:44:35;;;;;;;13.07;5.03;;;;;;;;;;5011216;28;20060;-82
2022/10/27 03:47:02;;;;;;;9.88;4.90;;;;;;;;;;5012244;28;20054;-82
2022/10/27 03:49:28;;;;;;;13.35;5.78;;;;;;;;;;5011742;28;20057;-84
2022/10/27 03:51:55;;;;;;;11.05;5.22;;;;;;;;;;5010751;28;20061;-82
2022/10/27 03:54:21;;;;;;;11.75;5.18;;;;;;;;;;5007604;28;20533;-82
2022/10/27 03:56:47;;;;;;;13.73;5.47;;;;;;;;;;4997175;28;20057;-82
2022/10/27 03:59:14;;;;;;;11.50;5.80;;;;;;;;;;5028093;28;20058;-83
2022/10/27 04:01:41;;;;;;;14.13;4.80;;;;;;;;;;4995047;28;20596;-82
2022/10/27 04:04:09;;;;;;;16.17;5.75;;;;;;;;;;5023117;28;20058;-81
2022/10/27 04:06:36;;;;;;;10.93;4.85;;;;;;;;;;5029340;28;20049;-82
2022/10/27 04:09:02;;;;;;;16.02;5.03;;;;;;;;;;5000567;28;20055;-82
2022/10/27 04:11:28;;;;;;;11.80;4.82;;;;;;;;;;4993800;28;20065;-84
2022/10/27 04:13:55;;;;;;;13.55;5.72;;;;;;;;;;5010227;28;20050;-81
2022/10/27 04:16:21;;;;;;;13.23;5.03;;;;;;;;;;5004104;28;20165;-83
2022/10/27 04:18:47;;;;;;;11.65;4.55;;;;;;;;;;5009954;28;20061;-84
2022/10/27 04:21:14;;;;;;;12.98;5.05;;;;;;;;;;5013658;28;20087;-84
2022/10/27 04:23:41;;;;;;;11.57;4.90;;;;;;;;;;4993181;28;20058;-83
2022/10/27 04:26:08;;;;;;;13.73;4.97;;;;;;;;;;5010431;28;20262;-83
2022/10/27 04:28:36;;;;;;;14.25;4.47;;;;;;;;;;4992471;28;20519;-83
2022/10/27 04:31:02;;;;;;;14.95;5.70;;;;;;;;;;4997183;28;20065;-83
2022/10/27 04:33:28;;;;;;;10.30;5.07;;;;;;;;;;5007223;28;20061;-85
2022/10/27 04:35:55;;;;;;;10.77;4.88;;;;;;;;;;5027460;28;20532;-82
2022/10/27 04:38:22;;;;;;;12.75;4.50;;;;;;;;;;5025747;28;20053;-81
2022/10/27 04:40:48;;;;;;;10.02;4.68;;;;;;;;;;5008797;28;20552;-83
2022/10/27 04:43:14;;;;;;;10.85;4.25;;;;;;;;;;4995818;28;20055;-83
2022/10/27 04:45:41;;;;;;;12.25;4.63;;;;;;;;;;5000959;28;20050;-83
2022/10/27 04:48:07;;;;;;;14.25;4.78;;;;;;;;;;5010422;28;20073;-81
2022/10/27 04:50:33;;;;;;;10.32;4.38;;;;;;;;;;4991405;28;20058;-83
2022/10/27 04:53:00;;;;;;;11.23;4.20;;;;;;;;;;5006286;28;20536;-85
2022/10/27 04:55:28;;;;;;;11.88;4.65;;;;;;;;;;5005650;28;20069;-83
2022/10/27 04:57:54;;;;;;;11.38;4.65;;;;;;;;;;4990850;28;20062;-84
2022/10/27 05:00:23;;;;;;;12.50;4.22;;;;;;;;;;5004056;28;20061;-82
2022/10/27 05:02:57;;;;;;;9.77;4.13;;;;;;;;;;5002545;28;20234;-83
2022/10/27 05:05:24;;;;;;;12.70;4.50;;;;;;;;;;4999997;28;20069;-83
2022/10/27 05:07:54;;;;;;;9.75;4.32;;;;;;;;;;4989421;28;20054;-82
2022/10/27 05:10:21;;;;;;;8.10;4.28;;;;;;;;;;5007448;28;20062;-83
2022/10/27 05:12:47;;;;;;;11.85;4.55;;;;;;;;;;5002739;28;20050;-82
2022/10/27 05:15:14;;;;;;;13.48;4.70;;;;;;;;;;4991690;28;20050;-83
2022/10/27 05:17:41;;;;;;;14.35;4.93;;;;;;;;;;5019962;28;20054;-82
2022/10/27 05:20:07;;;;;;;12.25;4.50;;;;;;;;;;5015971;28;20053;-83
2022/10/27 05:22:34;;;;;;;10.65;4.40;;;;;;;;;;5005272;28;20065;-81
2022/10/27 05:25:00;;;;;;;7.93;3.95;;;;;;;;;;5009643;28;20050;-82
2022/10/27 05:27:26;;;;;;;10.05;4.20;;;;;;;;;;4990913;28;20054;-84
2022/10/27 05:29:53;;;;;;;10.55;4.47;;;;;;;;;;4987744;28;20061;-82
2022/10/27 05:32:19;;;;;;;11.20;4.20;;;;;;;;;;4994312;28;20073;-84
2022/10/27 05:34:45;;;;;;;9.73;4.10;;;;;;;;;;5011583;28;20380;-82
2022/10/27 05:37:11;;;;;;;13.57;4.40;;;;;;;;;;5006946;28;20132;-83
2022/10/27 05:39:38;;;;;;;8.63;3.97;;;;;;;;;;5006934;28;20054;-84
2022/10/27 05:42:04;;;;;;;9.80;4.43;;;;;;;;;;4996687;28;20068;-85
2022/10/27 05:44:30;;;;;;;10.82;5.05;;;;;;;;;;5008851;28;20053;-82
2022/10/27 05:46:57;;;;;;;13.40;5.93;;;;;;;;;;5023178;28;20057;-83
2022/10/27 05:49:23;;;;;;;14.60;6.57;;;;;;;;;;5023309;28;20050;-84
2022/10/27 05:51:50;;;;;;;11.65;6.53;;;;;;;;;;5000933;28;20041;-82
2022/10/27 05:54:17;;;;;;;14.48;6.53;;;;;;;;;;4988658;28;20065;-83
2022/10/27 05:56:43;;;;;;;13.65;6.25;;;;;;;;;;4995764;28;20089;-84
2022/10/27 05:59:10;;;;;;;12.38;5.78;;;;;;;;;;4989612;28;20196;-85
2022/10/27 06:01:37;;;;;;;13.20;5.82;;;;;;;;;;5001026;28;20069;-85
2022/10/27 06:04:03;;;;;;;11.25;6.22;;;;;;;;;;5006944;28;20054;-84
2022/10/27 06:06:30;;;;;;;12.85;5.80;;;;;;;;;;4999097;28;20057;-82
2022/10/27 06:08:56;;;;;;;15.77;7.45;;;;;;;;;;4995395;28;20055;-82
2022/10/27 06:11:22;;;;;;;18.73;8.15;;;;;;;;;;5007096;28;20058;-83
2022/10/27 06:13:49;;;;;;;15.23;6.15;;;;;;;;;;4995587;28;20089;-83
2022/10/27 06:16:17;;;;;;;13.60;5.97;;;;;;;;;;5015883;28;20050;-82
2022/10/27 06:18:44;;;;;;;10.45;6.13;;;;;;;;;;4998682;28;20519;-86
2022/10/27 06:21:10;;;;;;;11.10;6.28;;;;;;;;;;4994075;28;20065;-81
2022/10/27 06:23:39;;;;;;;12.25;6.38;;;;;;;;;;4998554;28;20646;-82
2022/10/27 06:26:05;;;;;;;12.50;6.65;;;;;;;;;;4995086;28;20129;-82
2022/10/27 06:28:32;;;;;;;14.05;7.30;;;;;;;;;;5006385;28;20050;-83
2022/10/27 06:31:28;;;;;;;18.20;7.45;;;;;;;;;;5000285;28;20050;-83
2022/10/27 06:34:04;;;;;;;13.60;7.40;;;;;;;;;;4969830;28;20498;-83
2022/10/27 06:36:30;;;;;;;12.98;6.78;;;;;;;;;;5005994;28;20817;-83
2022/10/27 06:38:57;;;;;;;16.85;8.10;;;;;;;;;;4989508;28;20057;-83
2022/10/27 06:41:23;;;;;;;15.38;7.28;;;;;;;;;;5004740;28;20055;-83
2022/10/27 06:43:50;;;;;;;12.25;6.35;;;;;;;;;;4988274;28;20050;-83
2022/10/27 06:46:16;;;;;;;12.70;7.00;;;;;;;;;;4990048;28;20043;-83
2022/10/27 06:48:42;;;;;;;13.75;6.60;;;;;;;;;;4987045;28;20051;-83
2022/10/27 06:51:09;;;;;;;12.98;6.75;;;;;;;;;;5005651;28;20065;-83
2022/10/27 06:53:35;;;;;;;15.00;6.82;;;;;;;;;;4993185;28;20117;-83
2022/10/27 06:56:01;;;;;;;15.02;6.50;;;;;;;;;;5011992;28;20501;-83
2022/10/27 06:59:00;;;;;;;15.00;6.75;;;;;;;;;;5015433;28;20053;-82
2022/10/27 07:01:39;;;;;;;12.35;6.47;;;;;;;;;;4992218;28;20097;-83
2022/10/27 07:04:59;;;;;;;11.85;5.70;;;;;;;;;;5016881;28;20038;-83
2022/10/27 07:12:05;;;;;;;11.18;5.78;;;;;;;;;;5008283;28;20604;-83
2022/10/27 07:15:41;;;;;;;11.10;6.30;;;;;;;;;;4952017;28;20060;-83
2022/10/27 07:22:46;;;;;;;10.95;5.35;;;;;;;;;;4979612;28;20050;-83
2022/10/27 07:26:08;;;;;;;9.55;5.35;;;;;;;;;;5017930;28;20063;-83
2022/10/27 07:28:55;;;;;;;11.27;4.90;;;;;;;;;;4993785;28;20140;-83
2022/10/27 07:31:42;;;;;;;13.40;5.80;;;;;;;;;;4981382;28;20062;-83
2022/10/27 07:34:10;;;;;;;;;;;;;;;;;;4993361;28;20049;-83
2022/10/27 07:36:36;;;;;;;11.43;4.63;;;;;;;;;;5025217;28;44581;-82
2022/10/27 07:39:05;;;;;;;11.15;4.53;;;;;;;;;;5015661;28;20064;-81
2022/10/27 07:42:11;;;;;;;12.75;4.93;;;;;;;;;;5025117;28;20169;-80
2022/10/27 07:44:49;;;;;;;11.20;5.30;;;;;;;;;;5016899;28;20053;-83
2022/10/27 07:47:24;;;;;;;12.55;5.38;;;;;;;;;;5021459;28;20070;-82
2022/10/27 07:49:53;;;;;;;10.13;4.80;;;;;;;;;;5020687;28;20046;-82
2022/10/27 07:52:19;;;;;;;9.63;5.10;;;;;;;;;;5023262;28;20145;-83
2022/10/27 07:54:45;;;;;;;11.20;4.47;;;;;;;;;;5013623;28;20109;-82
2022/10/27 07:57:22;;;;;;;10.60;4.72;;;;;;;;;;5005742;28;20065;-82
2022/10/27 08:00:00;;;;;;;10.52;4.95;;;;;;;;;;4992872;28;20564;-82
2022/10/27 08:03:14;;;;;;;11.13;3.95;;;;;;;;;;5001461;28;20614;-83
2022/10/27 08:05:49;;;;;;;10.48;4.10;;;;;;;;;;4991231;28;20059;-83
2022/10/27 08:08:21;;;;;;;8.82;4.88;;;;;;;;;;5011106;28;20062;-83
2022/10/27 08:11:07;;;;;;;8.80;4.90;;;;;;;;;;5001059;28;20161;-83
2022/10/27 08:14:18;;;;;;;10.02;4.60;;;;;;;;;;5023299;28;20058;-83
2022/10/27 08:17:12;;;;;;;9.13;4.10;;;;;;;;;;4987932;28;20054;-83
2022/10/27 08:19:51;;;;;;;10.13;4.05;;;;;;;;;;5005290;28;20057;-82
2022/10/27 08:22:21;;;;;;;10.40;3.67;;;;;;;;;;4994014;28;20062;-83
2022/10/27 08:24:57;;;;;;;10.25;3.85;;;;;;;;;;4976756;28;20058;-83
2022/10/27 08:27:53;;;;;;;9.90;3.95;;;;;;;;;;5000493;28;20054;-83
2022/10/27 08:31:02;;;;;;;8.35;3.30;;;;;;;;;;4991472;28;20109;-83
2022/10/27 08:33:55;;;;;;;12.98;3.63;;;;;;;;;;4990268;28;20090;-83
2022/10/27 08:36:53;;;;;;;8.80;3.60;;;;;;;;;;4998923;28;20080;-83
2022/10/27 08:39:39;;;;;;;8.68;3.58;;;;;;;;;;4992296;28;20058;-83
2022/10/27 08:42:42;;;;;;;10.75;3.35;;;;;;;;;;4991005;28;20058;-83
2022/10/27 08:45:33;;;;;;;12.93;3.72;;;;;;;;;;4986319;28;20054;-82
2022/10/27 08:48:26;;;;;;;10.20;3.53;;;;;;;;;;5001405;28;21096;-83
2022/10/27 08:51:43;;;;;;;8.23;3.85;;;;;;;;;;5008550;28;20050;-84
2022/10/27 08:55:00;;;;;;;7.18;3.63;;;;;;;;;;5017078;28;20116;-83
2022/10/27 08:58:04;;;;;;;10.43;4.13;;;;;;;;;;4990395;28;20058;-83
2022/10/27 09:01:07;;;;;;;8.13;3.63;;;;;;;;;;4987109;28;20077;-83
2022/10/27 09:04:13;;;;;;;9.18;3.28;;;;;;;;;;4980435;28;20113;-84
2022/10/27 09:14:50;;;;;;;8.95;2.58;;;;;;;;;;4969334;28;20043;-82
2022/10/27 09:18:27;;;;;;;7.35;1.90;;;;;;;;;;4997022;28;20050;-83
2022/10/27 09:21:50;;;;;;;5.75;1.77;;;;;;;;;;4983393;28;20119;-83
2022/10/27 09:24:59;;;;;;;6.57;1.90;;;;;;;;;;4980328;28;20054;-85
2022/10/27 09:27:46;;;;;;;4.78;1.75;;;;;;;;;;4982142;28;20057;-81
2022/10/27 09:30:37;;;;;;;3.90;1.70;;;;;;;;;;4986497;28;20137;-83
2022/10/27 09:34:02;;;;;;;5.18;1.65;;;;;;;;;;4982034;28;20521;-83
2022/10/27 09:37:20;;;;;;;5.22;1.70;;;;;;;;;;4948227;28;20735;-83
2022/10/27 09:40:11;;;;;;;5.95;1.73;;;;;;;;;;4957018;28;20134;-84
2022/10/27 09:43:19;;;;;;;6.50;1.70;;;;;;;;;;4960829;28;20055;-84
2022/10/27 09:46:25;;;;;;;5.15;2.05;;;;;;;;;;4933620;28;20067;-83
2022/10/27 09:48:54;;;;;;;5.38;1.60;;;;;;;;;;4928865;28;20051;-84
2022/10/27 09:51:24;;;;;;;7.55;1.95;;;;;;;;;;4974918;28;20051;-83
2022/10/27 09:53:51;;;;;;;;;;;;;;;;;;4988083;28;20151;-83
2022/10/27 09:56:28;;;;;;;5.47;1.58;;;;;;;;;;4979263;28;44841;-83
2022/10/27 09:58:57;;;;;;;4.68;1.90;;;;;;;;;;4977118;28;20061;-83
2022/10/27 10:01:39;;;;;;;8.10;1.73;;;;;;;;;;4981484;28;20556;-83
2022/10/27 10:04:14;;;;;;;5.07;1.90;;;;;;;;;;4982704;28;20066;-83
2022/10/27 10:06:41;;;;;;;5.25;1.70;;;;;;;;;;4982910;28;20054;-82
2022/10/27 10:09:15;;;;;;;5.55;1.85;;;;;;;;;;4976160;28;20055;-83
2022/10/27 10:11:42;;;;;;;5.25;1.48;;;;;;;;;;4995868;28;21090;-84
2022/10/27 10:14:18;;;;;;;7.45;1.85;;;;;;;;;;5023553;28;20046;-82
2022/10/27 10:16:44;;;;;;;8.38;2.13;;;;;;;;;;4998159;28;20140;-82
2022/10/27 10:19:14;;;;;;;5.90;1.85;;;;;;;;;;5006181;28;20891;-81
2022/10/27 10:31:32;;;;;;;8.30;2.03;;;;;;;;;;5003696;28;20045;-82
2022/10/27 10:34:02;;;;;;;5.30;1.95;;;;;;;;;;5012763;28;20050;-82
2022/10/27 10:36:39;;;;;;;8.60;2.00;;;;;;;;;;5014447;28;20062;-82
2022/10/27 10:39:28;;;;;;;6.45;1.90;;;;;;;;;;4999343;28;20061;-83
2022/10/27 10:42:10;;;;;;;5.68;1.70;;;;;;;;;;4998120;28;20068;-83
2022/10/27 10:44:40;;;;;;;6.93;2.13;;;;;;;;;;4993800;28;20058;-82
2022/10/27 10:47:19;;;;;;;4.45;1.90;;;;;;;;;;4989369;28;20062;-82
2022/10/27 10:49:54;;;;;;;7.82;2.10;;;;;;;;;;4992109;28;20149;-82
2022/10/27 10:52:22;;;;;;;5.97;1.77;;;;;;;;;;4991168;28;20050;-81
2022/10/27 10:54:48;;;;;;;4.65;1.95;;;;;;;;;;4987336;28;20947;-81
2022/10/27 10:57:35;;;;;;;4.82;2.00;;;;;;;;;;5006040;28;20063;-81
2022/10/27 11:00:03;;;;;;;3.90;1.85;;;;;;;;;;4991984;28;20285;-81
2022/10/27 11:02:30;;;;;;;11.15;2.50;;;;;;;;;;4991313;28;20045;-81
2022/10/27 11:04:59;;;;;;;6.90;1.98;;;;;;;;;;5010700;28;20049;-81
2022/10/27 11:07:25;;;;;;;5.50;2.20;;;;;;;;;;5016079;28;20360;-81
2022/10/27 11:09:52;;;;;;;9.38;2.25;;;;;;;;;;4992129;28;20080;-81
2022/10/27 11:12:24;;;;;;;6.53;1.80;;;;;;;;;;5006061;28;20046;-81
2022/10/27 11:14:51;;;;;;;6.65;2.03;;;;;;;;;;4991500;28;20064;-81
2022/10/27 11:17:23;;;;;;;8.30;2.25;;;;;;;;;;5004263;28;21465;-81
2022/10/27 11:19:50;;;;;;;6.32;2.38;;;;;;;;;;5015413;28;20053;-82
2022/10/27 11:22:24;;;;;;;7.05;2.33;;;;;;;;;;5004967;28;20054;-81
2022/10/27 11:25:05;;;;;;;5.35;1.73;;;;;;;;;;5002385;28;20157;-84
2022/10/27 11:27:38;;;;;;;5.35;2.15;;;;;;;;;;5004176;28;20042;-85
2022/10/27 11:30:18;;;;;;;7.72;2.13;;;;;;;;;;5006391;28;20117;-84
2022/10/27 11:32:54;;;;;;;7.90;2.25;;;;;;;;;;5004824;28;20170;-84
2022/10/27 11:35:58;;;;;;;5.38;1.70;;;;;;;;;;4998732;28;20106;-85
2022/10/27 11:38:40;;;;;;;8.20;1.90;;;;;;;;;;5013122;28;20065;-84
2022/10/27 11:41:25;;;;;;;7.43;1.90;;;;;;;;;;5008174;28;20038;-83
2022/10/27 11:44:04;;;;;;;6.18;1.70;;;;;;;;;;5014885;28;20105;-84
2022/10/27 11:46:56;;;;;;;6.43;1.75;;;;;;;;;;4994931;28;20125;-83
2022/10/27 11:49:28;;;;;;;7.93;2.13;;;;;;;;;;4995028;28;20054;-84
2022/10/27 11:52:12;;;;;;;5.75;1.65;;;;;;;;;;4997000;28;20051;-82
2022/10/27 11:54:39;;;;;;;6.50;1.77;;;;;;;;;;4998482;28;20051;-81
2022/10/27 11:57:14;;;;;;;7.45;1.52;;;;;;;;;;5006421;28;20064;-84
2022/10/27 12:00:00;;;;;;;5.78;1.55;;;;;;;;;;5007518;28;20049;-85
2022/10/27 12:02:35;;;;;;;5.50;1.65;;;;;;;;;;4992488;28;20445;-83
2022/10/27 12:05:01;;;;;;;7.25;1.52;;;;;;;;;;4990464;28;20066;-83
2022/10/27 12:07:34;;;;;;;4.43;1.55;;;;;;;;;;5009940;28;20061;-84
2022/10/27 12:10:07;;;;;;;5.53;1.60;;;;;;;;;;5012156;28;20064;-85
2022/10/27 12:12:38;;;;;;;5.20;1.90;;;;;;;;;;4990388;28;20058;-84
2022/10/27 12:15:17;;;;;;;4.45;1.80;;;;;;;;;;4989175;28;20050;-84
2022/10/27 12:18:03;;;;;;;7.70;1.83;;;;;;;;;;5014116;28;20057;-83
2022/10/27 12:20:42;;;;;;;5.63;1.92;;;;;;;;;;5012766;28;20141;-83
2022/10/27 12:23:16;;;;;;;10.52;2.35;;;;;;;;;;4996673;28;20106;-82
2022/10/27 12:26:03;;;;;;;5.30;1.98;;;;;;;;;;4994374;28;20050;-82
2022/10/27 12:28:31;;;;;;;6.53;1.58;;;;;;;;;;5013847;28;20078;-84
2022/10/27 12:31:00;;;;;;;7.63;1.73;;;;;;;;;;4992759;28;20034;-83
2022/10/27 12:33:51;;;;;;;;;;;;;;;;;;;;;
2022/10/27 12:37:02;;;;;;;4.97;1.75;;;;;;;;;;5007240;28;20049;-81
2022/10/27 12:40:31;;;;;;;5.97;1.80;;;;;;;;;;4541817;27;16867706;-81
2022/10/27 12:43:05;;;;;;;6.55;2.00;;;;;;;;;;5118525;27;20065;-82
2022/10/27 12:45:35;;;;;;;7.25;2.17;;;;;;;;;;5144965;27;20066;-83
2022/10/27 12:48:20;;;;;;;5.03;1.90;;;;;;;;;;5142027;27;20043;-82
2022/10/27 12:50:49;;;;;;;8.95;1.90;;;;;;;;;;5162173;27;20047;-81
2022/10/27 12:53:30;;;;;;;6.07;1.67;;;;;;;;;;5146296;27;20066;-78
2022/10/27 12:55:59;;;;;;;7.70;2.05;;;;;;;;;;5143111;27;20516;-81
2022/10/27 12:58:33;;;;;;;7.30;1.95;;;;;;;;;;5147400;27;20058;-80
2022/10/27 13:01:03;;;;;;;8.98;2.00;;;;;;;;;;5147941;27;20070;-79
2022/10/27 13:03:42;;;;;;;4.90;1.40;;;;;;;;;;5141973;27;20063;-82
2022/10/27 13:06:25;;;;;;;5.00;1.77;;;;;;;;;;5144342;27;20162;-80
2022/10/27 13:08:59;;;;;;;5.75;2.00;;;;;;;;;;5158166;27;20062;-81
2022/10/27 13:11:47;;;;;;;5.78;2.03;;;;;;;;;;5149775;27;20058;-83
2022/10/27 13:14:22;;;;;;;7.03;2.08;;;;;;;;;;5144864;27;20141;-83
2022/10/27 13:16:49;;;;;;;5.50;1.60;;;;;;;;;;5162664;27;20062;-79
2022/10/27 13:19:18;;;;;;;6.75;1.88;;;;;;;;;;5139753;27;20058;-81
2022/10/27 13:22:01;;;;;;;6.47;2.20;;;;;;;;;;5146068;27;20059;-83
2022/10/27 13:24:47;;;;;;;7.95;1.92;;;;;;;;;;5144941;27;20050;-80
2022/10/27 13:27:34;;;;;;;5.30;2.00;;;;;;;;;;5129503;27;20055;-80
2022/10/27 13:30:05;;;;;;;5.97;1.90;;;;;;;;;;5136706;27;20055;-83
2022/10/27 13:32:47;;;;;;;8.38;1.85;;;;;;;;;;5140368;27;20061;-80
2022/10/27 13:35:13;;;;;;;7.70;1.70;;;;;;;;;;5136433;27;20062;-81
2022/10/27 13:37:43;;;;;;;7.22;1.88;;;;;;;;;;5143401;27;20052;-83
2022/10/27 13:40:21;;;;;;;6.13;2.10;;;;;;;;;;5143347;27;20046;-83
2022/10/27 13:43:11;;;;;;;6.85;1.98;;;;;;;;;;5141272;27;20047;-83
2022/10/27 13:45:37;;;;;;;6.95;2.00;;;;;;;;;;5146673;27;20058;-81
2022/10/27 13:48:06;;;;;;;5.53;1.58;;;;;;;;;;5148454;27;20058;-82
2022/10/27 13:50:35;;;;;;;6.63;1.85;;;;;;;;;;5135263;27;20055;-82
2022/10/27 13:53:13;;;;;;;6.70;1.90;;;;;;;;;;5130223;27;20051;-80
2022/10/27 13:55:39;;;;;;;6.97;2.13;;;;;;;;;;5126453;27;20044;-83
2022/10/27 13:58:22;;;;;;;7.72;2.00;;;;;;;;;;5142969;27;20058;-81
2022/10/27 14:00:58;;;;;;;6.85;1.98;;;;;;;;;;5131820;27;20066;-84
2022/10/27 14:03:24;;;;;;;7.03;1.83;;;;;;;;;;5151898;27;20070;-84
2022/10/27 14:05:52;;;;;;;9.88;2.42;;;;;;;;;;5131822;27;20051;-83
2022/10/27 14:08:27;;;;;;;9.73;2.10;;;;;;;;;;5145510;27;20054;-82
2022/10/27 14:10:55;;;;;;;6.18;1.98;;;;;;;;;;5151918;27;20048;-83
2022/10/27 14:13:23;;;;;;;6.63;1.88;;;;;;;;;;5134936;27;20517;-80
2022/10/27 14:15:55;;;;;;;6.15;1.98;;;;;;;;;;5132435;27;20051;-83
2022/10/27 14:18:24;;;;;;;8.77;2.25;;;;;;;;;;5128435;27;20524;-81
2022/10/27 14:20:52;;;;;;;6.03;1.63;;;;;;;;;;5129338;27;20062;-82
2022/10/27 14:23:18;;;;;;;7.20;2.08;;;;;;;;;;5135206;27;20086;-81
2022/10/27 14:25:45;;;;;;;5.38;1.65;;;;;;;;;;5129976;27;20105;-81
2022/10/27 14:28:14;;;;;;;5.18;2.00;;;;;;;;;;5130091;27;20100;-82
2022/10/27 14:30:44;;;;;;;5.80;2.20;;;;;;;;;;5132938;27;20126;-84
2022/10/27 14:33:21;;;;;;;8.48;2.10;;;;;;;;;;5114161;27;20063;-84
2022/10/27 14:35:48;;;;;;;5.38;2.03;;;;;;;;;;5115115;27;20977;-84
2022/10/27 14:38:16;;;;;;;8.32;2.20;;;;;;;;;;5131438;27;20047;-84
2022/10/27 14:40:43;;;;;;;6.15;2.00;;;;;;;;;;5134784;27;20062;-81
2022/10/27 14:43:20;;;;;;;6.30;2.33;;;;;;;;;;5152412;27;20059;-81
2022/10/27 14:45:51;;;;;;;5.70;1.88;;;;;;;;;;5147050;27;20051;-81
2022/10/27 14:48:22;;;;;;;5.70;2.22;;;;;;;;;;5133418;27;20055;-81
2022/10/27 14:50:49;;;;;;;9.02;2.30;;;;;;;;;;5127804;27;20051;-84
2022/10/27 14:53:24;;;;;;;10.23;2.95;;;;;;;;;;5131861;27;20047;-82
2022/10/27 14:56:04;;;;;;;7.05;2.60;;;;;;;;;;5151127;27;20055;-84
2022/10/27 14:58:30;;;;;;;9.25;2.70;;;;;;;;;;5151474;27;20055;-82
2022/10/27 15:00:57;;;;;;;8.32;2.60;;;;;;;;;;5144250;27;20134;-82
2022/10/27 15:03:30;;;;;;;8.10;2.28;;;;;;;;;;5129086;27;20050;-83
2022/10/27 15:05:57;;;;;;;5.65;2.10;;;;;;;;;;5130830;27;20055;-81
2022/10/27 15:08:27;;;;;;;7.47;2.42;;;;;;;;;;5131447;27;20055;-83
2022/10/27 15:10:58;;;;;;;6.47;2.25;;;;;;;;;;5146445;27;20055;-81
2022/10/27 15:13:25;;;;;;;6.25;2.35;;;;;;;;;;5132595;27;20558;-84
2022/10/27 15:15:56;;;;;;;10.48;2.95;;;;;;;;;;5130015;27;20047;-81
2022/10/27 15:18:27;;;;;;;9.55;3.35;;;;;;;;;;5131793;27;20085;-84
2022/10/27 15:20:54;;;;;;;8.55;2.70;;;;;;;;;;5129666;27;20062;-81
2022/10/27 15:23:21;;;;;;;6.45;3.05;;;;;;;;;;5132039;27;20043;-83
2022/10/27 15:25:48;;;;;;;7.78;2.63;;;;;;;;;;5129572;27;20066;-81
2022/10/27 15:28:31;;;;;;;10.25;2.67;;;;;;;;;;5134570;27;20058;-83
2022/10/27 15:30:58;;;;;;;9.63;2.83;;;;;;;;;;5148340;27;20081;-84
2022/10/27 15:33:42;;;;;;;11.38;2.80;;;;;;;;;;5133514;27;20062;-83
2022/10/27 15:36:11;;;;;;;6.88;2.60;;;;;;;;;;5125797;27;20051;-82
2022/10/27 15:38:38;;;;;;;6.70;2.55;;;;;;;;;;5131820;27;20553;-83
2022/10/27 15:41:07;;;;;;;8.52;3.10;;;;;;;;;;5148573;27;20080;-84
2022/10/27 15:43:33;;;;;;;8.70;2.67;;;;;;;;;;5129108;27;20575;-84
2022/10/27 15:46:08;;;;;;;7.57;2.80;;;;;;;;;;5114602;27;20047;-84
2022/10/27 15:48:35;;;;;;;9.20;2.90;;;;;;;;;;5131166;27;20543;-84